createdAt,value
2019-01-21T00:01:14.556Z,78.44
2019-01-21T00:03:57.333Z,79.00
2019-01-21T00:06:51.723Z,79.49
2019-01-21T00:09:24.910Z,79.55
2019-01-21T00:11:58.137Z,79.65
2019-01-21T00:14:40.547Z,79.66
2019-01-21T00:17:13.783Z,79.71
2019-01-21T00:19:47.023Z,79.78
2019-01-21T00:22:24.762Z,79.55
2019-01-21T00:25:08.198Z,79.08
2019-01-21T00:27:58.832Z,78.89
2019-01-21T00:30:31.974Z,79.11
2019-01-21T00:33:05.689Z,79.36
2019-01-21T00:35:38.819Z,79.26
2019-01-21T00:38:15.356Z,79.09
2019-01-21T00:40:59.926Z,79.26
2019-01-21T00:43:34.798Z,79.40
2019-01-21T00:46:12.820Z,79.53
2019-01-21T00:48:46.342Z,79.42
2019-01-21T00:51:19.867Z,79.13
2019-01-21T00:54:07.885Z,78.70
2019-01-21T00:56:41.073Z,78.35
2019-01-21T00:59:23.858Z,78.02
2019-01-21T01:02:13.802Z,78.02
2019-01-21T01:04:47.771Z,77.89
2019-01-21T01:07:21.281Z,77.91
2019-01-21T01:09:54.866Z,78.05
2019-01-21T01:12:28.397Z,78.13
2019-01-21T01:15:09.393Z,78.00
2019-01-21T01:17:52.850Z,77.76
2019-01-21T01:20:26.436Z,77.90
2019-01-21T01:23:01.925Z,78.39
2019-01-21T01:25:42.664Z,78.66
2019-01-21T01:28:24.932Z,78.69
2019-01-21T01:31:04.297Z,78.88
2019-01-21T01:33:38.510Z,79.07
2019-01-21T01:36:12.694Z,79.09
2019-01-21T01:38:56.531Z,79.00
2019-01-21T01:41:38.751Z,78.87
2019-01-21T01:44:13.047Z,78.64
2019-01-21T01:46:47.006Z,78.22
2019-01-21T01:49:20.525Z,78.15
2019-01-21T01:51:55.778Z,77.93
2019-01-21T01:54:29.293Z,77.79
2019-01-21T01:57:02.958Z,77.50
2019-01-21T01:59:37.824Z,77.55
2019-01-21T02:02:11.127Z,77.64
2019-01-21T02:04:43.490Z,77.54
2019-01-21T02:07:18.018Z,77.82
2019-01-21T02:09:51.213Z,78.19
2019-01-21T02:12:25.086Z,78.49
2019-01-21T02:15:00.262Z,78.77
2019-01-21T02:17:33.455Z,78.99
2019-01-21T02:20:18.007Z,79.09
2019-01-21T02:22:54.648Z,78.92
2019-01-21T02:25:45.684Z,78.75
2019-01-21T02:29:31.633Z,78.72
2019-01-21T02:32:57.553Z,78.58
2019-01-21T02:35:59.240Z,78.11
2019-01-21T02:39:06.293Z,77.89
2019-01-21T02:42:19.455Z,77.56
2019-01-21T02:45:10.900Z,77.28
2019-01-21T02:48:43.797Z,77.44
2019-01-21T02:51:59.635Z,77.58
2019-01-21T02:55:03.771Z,77.89
2019-01-21T02:58:09.376Z,78.11
2019-01-21T03:01:07.858Z,78.12
2019-01-21T03:04:22.244Z,78.05
2019-01-21T03:07:17.015Z,78.08
2019-01-21T03:10:02.297Z,78.10
2019-01-21T03:13:24.813Z,78.32
2019-01-21T03:16:46.652Z,78.69
2019-01-21T03:19:33.685Z,78.92
2019-01-21T03:22:57.197Z,79.42
2019-01-21T03:26:18.412Z,79.69
2019-01-21T03:29:23.784Z,80.08
2019-01-21T03:32:28.623Z,80.30
2019-01-21T03:35:29.928Z,80.21
2019-01-21T03:38:52.885Z,80.10
2019-01-21T03:41:52.675Z,80.17
2019-01-21T03:45:25.295Z,80.35
2019-01-21T03:48:30.158Z,80.41
2019-01-21T03:51:23.968Z,80.34
2019-01-21T03:54:10.729Z,80.64
2019-01-21T03:57:02.561Z,80.78
2019-01-21T04:00:18.876Z,80.93
2019-01-21T04:03:40.135Z,81.22
2019-01-21T04:06:50.184Z,81.36
2019-01-21T04:09:59.417Z,81.56
2019-01-21T04:12:59.825Z,81.61
2019-01-21T04:16:00.275Z,81.75
2019-01-21T04:19:06.013Z,81.78
2019-01-21T04:22:15.054Z,81.76
2019-01-21T04:25:06.759Z,81.79
2019-01-21T04:28:18.216Z,82.03
2019-01-21T04:31:48.211Z,82.07
2019-01-21T04:34:41.847Z,81.96
2019-01-21T04:37:44.349Z,82.00
2019-01-21T04:41:16.583Z,82.05
2019-01-21T04:44:52.214Z,82.08
2019-01-21T04:48:04.677Z,82.04
2019-01-21T04:51:03.413Z,81.96
2019-01-21T04:54:12.943Z,82.07
2019-01-21T04:57:14.251Z,82.04
2019-01-21T05:00:33.998Z,82.05
2019-01-21T05:03:50.233Z,82.05
2019-01-21T05:06:58.121Z,82.08
2019-01-21T05:10:10.367Z,82.22
2019-01-21T05:13:29.791Z,82.36
2019-01-21T05:16:32.171Z,82.68
2019-01-21T05:19:42.418Z,82.76
2019-01-21T05:23:07.358Z,82.77
2019-01-21T05:26:01.771Z,82.83
2019-01-21T05:28:58.925Z,82.79
2019-01-21T05:32:28.974Z,82.74
2019-01-21T05:35:37.323Z,82.79
2019-01-21T05:38:23.832Z,83.02
2019-01-21T05:41:31.170Z,82.96
2019-01-21T05:45:01.156Z,82.82
2019-01-21T05:48:01.665Z,82.52
2019-01-21T05:51:17.636Z,82.33
2019-01-21T05:54:29.446Z,82.29
2019-01-21T05:57:46.951Z,82.12
2019-01-21T06:00:36.015Z,81.98
2019-01-21T06:03:40.633Z,82.03
2019-01-21T06:07:12.343Z,81.95
2019-01-21T06:10:09.824Z,81.68
2019-01-21T06:13:31.301Z,81.52
2019-01-21T06:16:49.348Z,81.27
2019-01-21T06:19:54.190Z,81.21
2019-01-21T06:23:06.474Z,81.08
2019-01-21T06:26:34.820Z,81.03
2019-01-21T06:29:51.878Z,80.71
2019-01-21T06:32:48.309Z,80.63
2019-01-21T06:36:02.980Z,80.70
2019-01-21T06:39:20.459Z,80.83
2019-01-21T06:42:48.620Z,80.54
2019-01-21T06:45:48.347Z,80.41
2019-01-21T06:49:04.640Z,80.76
2019-01-21T06:52:03.846Z,81.12
2019-01-21T06:55:02.843Z,81.22
2019-01-21T06:58:29.854Z,81.09
2019-01-21T07:01:46.685Z,80.65
2019-01-21T07:04:57.028Z,79.96
2019-01-21T07:08:05.937Z,79.68
2019-01-21T07:11:20.371Z,79.79
2019-01-21T07:14:49.761Z,79.76
2019-01-21T07:18:20.304Z,79.98
2019-01-21T07:21:25.090Z,80.15
2019-01-21T07:24:22.951Z,79.99
2019-01-21T07:27:39.252Z,79.63
2019-01-21T07:30:57.686Z,79.48
2019-01-21T07:34:18.206Z,79.43
2019-01-21T07:37:16.801Z,79.35
2019-01-21T07:40:59.916Z,79.61
2019-01-21T07:43:52.251Z,79.93
2019-01-21T07:46:56.124Z,80.39
2019-01-21T07:50:11.001Z,80.70
2019-01-21T07:53:42.401Z,81.01
2019-01-21T07:56:52.732Z,80.94
2019-01-21T08:00:07.924Z,80.82
2019-01-21T08:03:14.651Z,80.63
2019-01-21T08:06:39.133Z,80.52
2019-01-21T08:10:01.270Z,80.41
2019-01-21T08:13:10.882Z,80.48
2019-01-21T08:16:34.671Z,80.53
2019-01-21T08:19:48.457Z,80.63
2019-01-21T08:23:19.994Z,80.69
2019-01-21T08:26:39.278Z,80.91
2019-01-21T08:29:24.486Z,80.84
2019-01-21T08:32:47.222Z,80.70
2019-01-21T08:36:10.334Z,80.72
2019-01-21T08:39:23.730Z,80.83
2019-01-21T08:42:11.190Z,80.86
2019-01-21T08:45:16.753Z,80.99
2019-01-21T08:48:22.216Z,81.01
2019-01-21T08:51:40.455Z,81.12
2019-01-21T08:54:35.113Z,81.34
2019-01-21T08:57:43.671Z,81.40
2019-01-21T09:00:44.631Z,81.48
2019-01-21T09:03:50.261Z,81.48
2019-01-21T09:07:04.823Z,81.43
2019-01-21T09:10:07.565Z,81.20
2019-01-21T09:13:43.269Z,81.11
2019-01-21T09:16:35.190Z,81.08
2019-01-21T09:19:44.176Z,81.04
2019-01-21T09:22:30.984Z,81.05
2019-01-21T09:25:42.541Z,80.85
2019-01-21T09:29:11.855Z,80.86
2019-01-21T09:32:16.527Z,80.81
2019-01-21T09:35:38.557Z,80.92
2019-01-21T09:38:45.437Z,80.92
2019-01-21T09:42:13.790Z,81.27
2019-01-21T09:45:33.857Z,81.43
2019-01-21T09:48:05.607Z,81.59
2019-01-21T09:50:40.385Z,81.69
2019-01-21T09:53:15.086Z,81.71
2019-01-21T09:55:58.317Z,81.80
2019-01-21T09:58:43.086Z,81.70
2019-01-21T10:01:16.829Z,81.58
2019-01-21T10:03:50.441Z,81.46
2019-01-21T10:06:30.339Z,81.46
2019-01-21T10:09:33.082Z,81.27
2019-01-21T10:12:59.294Z,81.15
2019-01-21T10:15:45.121Z,81.08
2019-01-21T10:19:26.134Z,80.44
2019-01-21T10:22:33.860Z,79.87
2019-01-21T10:25:57.172Z,78.49
2019-01-21T10:29:15.190Z,77.56
2019-01-21T10:32:41.604Z,77.42
2019-01-21T10:36:04.760Z,77.27
2019-01-21T10:39:21.429Z,77.24
2019-01-21T10:42:16.614Z,76.74
2019-01-21T10:45:40.411Z,76.27
2019-01-21T10:48:49.626Z,75.69
2019-01-21T10:51:52.753Z,75.15
2019-01-21T10:55:04.864Z,75.15
2019-01-21T10:58:04.615Z,75.21
2019-01-21T11:01:05.937Z,75.29
2019-01-21T11:04:15.294Z,75.18
2019-01-21T11:07:25.309Z,74.79
2019-01-21T11:10:18.028Z,74.41
2019-01-21T11:13:25.537Z,74.82
2019-01-21T11:16:13.638Z,75.15
2019-01-21T11:19:13.507Z,74.94
2019-01-21T11:22:22.762Z,74.92
2019-01-21T11:25:36.681Z,74.89
2019-01-21T11:28:45.309Z,75.03
2019-01-21T11:31:47.135Z,75.00
2019-01-21T11:35:09.549Z,74.87
2019-01-21T11:38:34.802Z,74.27
2019-01-21T11:41:21.833Z,73.87
2019-01-21T11:44:26.459Z,73.44
2019-01-21T11:47:48.962Z,72.71
2019-01-21T11:50:34.511Z,72.21
2019-01-21T11:53:45.937Z,70.69
2019-01-21T11:56:56.338Z,69.88
2019-01-21T12:00:02.258Z,69.40
2019-01-21T12:03:23.606Z,68.74
2019-01-21T12:06:11.754Z,69.01
2019-01-21T12:09:12.522Z,68.99
2019-01-21T12:12:06.809Z,68.96
2019-01-21T12:15:34.476Z,69.15
2019-01-21T12:19:00.663Z,68.97
2019-01-21T12:22:38.884Z,67.48
2019-01-21T12:25:39.868Z,67.90
2019-01-21T12:28:33.384Z,67.11
2019-01-21T12:32:02.047Z,66.72
2019-01-21T12:35:03.400Z,66.35
2019-01-21T12:38:07.384Z,65.87
2019-01-21T12:41:10.407Z,65.99
2019-01-21T12:44:20.894Z,65.87
2019-01-21T12:47:04.147Z,66.61
2019-01-21T12:50:14.540Z,66.45
2019-01-21T12:52:55.146Z,67.31
2019-01-21T12:56:29.206Z,67.80
2019-01-21T12:59:29.746Z,68.21
2019-01-21T13:02:18.600Z,69.06
2019-01-21T13:05:19.627Z,69.42
2019-01-21T13:08:28.978Z,69.63
2019-01-21T13:11:24.785Z,70.24
2019-01-21T13:14:57.993Z,70.44
2019-01-21T13:18:10.904Z,70.64
2019-01-21T13:21:36.310Z,70.41
2019-01-21T13:24:51.019Z,70.34
2019-01-21T13:28:12.851Z,70.28
2019-01-21T13:31:29.710Z,70.12
2019-01-21T13:34:23.187Z,70.07
2019-01-21T13:37:38.967Z,70.02
2019-01-21T13:40:53.460Z,70.47
2019-01-21T13:43:40.548Z,70.27
2019-01-21T13:46:30.900Z,70.42
2019-01-21T13:50:06.426Z,70.23
2019-01-21T13:53:26.438Z,69.88
2019-01-21T13:56:09.473Z,70.04
2019-01-21T13:59:07.914Z,70.27
2019-01-21T14:01:54.798Z,70.07
2019-01-21T14:05:32.921Z,70.43
2019-01-21T14:08:48.229Z,70.24
2019-01-21T14:12:05.238Z,70.51
2019-01-21T14:15:32.715Z,70.62
2019-01-21T14:18:45.590Z,70.94
2019-01-21T14:22:08.581Z,70.95
2019-01-21T14:26:03.560Z,71.39
2019-01-21T14:29:27.976Z,71.25
2019-01-21T14:32:56.774Z,70.60
2019-01-21T14:36:09.691Z,70.41
2019-01-21T14:39:16.610Z,70.39
2019-01-21T14:42:29.725Z,70.61
2019-01-21T14:45:47.382Z,70.93
2019-01-21T14:48:48.760Z,70.84
2019-01-21T14:52:04.190Z,70.70
2019-01-21T14:55:14.139Z,70.97
2019-01-21T14:58:20.179Z,70.94
2019-01-21T15:01:26.267Z,71.33
2019-01-21T15:04:34.313Z,71.48
2019-01-21T15:07:59.604Z,71.76
2019-01-21T15:10:58.172Z,71.69
2019-01-21T15:14:04.626Z,71.71
2019-01-21T15:17:24.044Z,71.81
2019-01-21T15:20:20.210Z,71.89
2019-01-21T15:23:33.093Z,72.00
2019-01-21T15:26:35.881Z,71.89
2019-01-21T15:29:37.862Z,71.92
2019-01-21T15:32:40.355Z,71.94
2019-01-21T15:35:39.583Z,72.05
2019-01-21T15:38:54.464Z,72.35
2019-01-21T15:41:48.092Z,72.50
2019-01-21T15:45:17.654Z,72.53
2019-01-21T15:48:15.777Z,72.66
2019-01-21T15:51:24.459Z,72.49
2019-01-21T15:54:27.708Z,72.56
2019-01-21T15:57:57.416Z,72.73
2019-01-21T16:01:15.519Z,72.84
2019-01-21T16:04:20.239Z,72.90
2019-01-21T16:07:18.764Z,72.73
2019-01-21T16:10:54.551Z,73.00
2019-01-21T16:14:03.075Z,73.06
2019-01-21T16:17:36.019Z,73.09
2019-01-21T16:20:22.364Z,73.10
2019-01-21T16:23:25.568Z,73.12
2019-01-21T16:26:21.996Z,73.03
2019-01-21T16:29:22.273Z,73.20
2019-01-21T16:32:22.265Z,73.22
2019-01-21T16:35:39.615Z,73.01
2019-01-21T16:38:34.461Z,73.14
2019-01-21T16:41:36.357Z,73.01
2019-01-21T16:44:10.781Z,73.13
2019-01-21T16:46:46.401Z,73.05
2019-01-21T16:49:24.157Z,73.06
2019-01-21T16:52:07.218Z,73.22
2019-01-21T16:54:40.717Z,73.25
2019-01-21T16:57:13.936Z,73.13
2019-01-21T17:00:02.618Z,73.22
2019-01-21T17:02:36.069Z,73.32
2019-01-21T17:05:18.778Z,73.35
2019-01-21T17:07:52.750Z,73.47
2019-01-21T17:10:43.497Z,73.71
2019-01-21T17:13:18.151Z,73.83
2019-01-21T17:16:00.545Z,74.10
2019-01-21T17:18:33.761Z,74.19
2019-01-21T17:21:06.993Z,74.43
2019-01-21T17:23:40.592Z,74.68
2019-01-21T17:26:14.667Z,74.88
2019-01-21T17:28:48.742Z,75.12
2019-01-21T17:31:21.967Z,75.41
2019-01-21T17:33:56.890Z,75.78
2019-01-21T17:36:30.096Z,76.15
2019-01-21T17:39:06.296Z,76.37
2019-01-21T17:41:52.266Z,76.62
2019-01-21T17:44:25.517Z,76.76
2019-01-21T17:46:59.580Z,76.96
2019-01-21T17:49:42.563Z,77.08
2019-01-21T17:52:16.703Z,77.22
2019-01-21T17:54:51.214Z,77.27
2019-01-21T17:57:34.599Z,77.34
2019-01-21T18:00:10.272Z,77.39
2019-01-21T18:02:44.677Z,77.32
2019-01-21T18:05:27.855Z,77.46
2019-01-21T18:08:01.004Z,77.50
2019-01-21T18:10:43.969Z,77.46
2019-01-21T18:13:17.193Z,77.47
2019-01-21T18:15:50.968Z,77.54
2019-01-21T18:18:24.216Z,77.54
2019-01-21T18:20:58.297Z,77.55
2019-01-21T18:23:32.200Z,77.45
2019-01-21T18:26:05.532Z,77.58
2019-01-21T18:28:49.496Z,77.82
2019-01-21T18:31:22.977Z,78.04
2019-01-21T18:34:04.938Z,78.08
2019-01-21T18:36:38.537Z,78.16
2019-01-21T18:39:14.820Z,78.34
2019-01-21T18:41:48.427Z,78.28
2019-01-21T18:44:21.621Z,78.15
2019-01-21T18:46:54.483Z,78.12
2019-01-21T18:49:28.467Z,77.98
2019-01-21T18:52:01.929Z,77.83
2019-01-21T18:54:37.663Z,77.78
2019-01-21T18:57:10.744Z,77.78
2019-01-21T18:59:47.697Z,77.68
2019-01-21T19:02:21.107Z,77.57
2019-01-21T19:04:54.401Z,77.48
2019-01-21T19:07:28.155Z,77.37
2019-01-21T19:10:02.651Z,77.23
2019-01-21T19:12:36.482Z,77.15
2019-01-21T19:15:12.967Z,77.16
2019-01-21T19:17:56.586Z,77.27
2019-01-21T19:20:38.777Z,77.35
2019-01-21T19:23:12.102Z,77.37
2019-01-21T19:25:45.269Z,77.29
2019-01-21T19:28:27.660Z,77.18
2019-01-21T19:31:10.511Z,77.06
2019-01-21T19:33:43.864Z,76.97
2019-01-21T19:36:17.440Z,76.89
2019-01-21T19:38:52.241Z,76.62
2019-01-21T19:41:27.323Z,76.68
2019-01-21T19:44:10.717Z,77.05
2019-01-21T19:46:52.776Z,77.31
2019-01-21T19:49:26.262Z,77.48
2019-01-21T19:52:00.433Z,77.78
2019-01-21T19:54:35.007Z,77.75
2019-01-21T19:57:09.556Z,77.56
2019-01-21T19:59:52.115Z,77.39
2019-01-21T20:02:25.288Z,77.35
2019-01-21T20:04:58.700Z,77.28
2019-01-21T20:07:31.892Z,77.40
2019-01-21T20:10:06.524Z,77.26
2019-01-21T20:12:40.439Z,77.13
2019-01-21T20:15:22.847Z,77.32
2019-01-21T20:17:56.627Z,77.63
2019-01-21T20:20:33.008Z,78.04
2019-01-21T20:23:06.173Z,78.31
2019-01-21T20:25:37.980Z,78.64
2019-01-21T20:28:12.219Z,78.81
2019-01-21T20:30:46.146Z,78.97
2019-01-21T20:33:22.351Z,79.07
2019-01-21T20:35:55.802Z,79.16
2019-01-21T20:38:28.943Z,79.27
2019-01-21T20:41:11.129Z,79.37
2019-01-21T20:43:45.187Z,79.51
2019-01-21T20:46:18.306Z,79.36
2019-01-21T20:49:01.681Z,79.30
2019-01-21T20:51:35.436Z,79.45
2019-01-21T20:54:09.212Z,79.54
2019-01-21T20:56:41.283Z,79.66
2019-01-21T20:59:14.415Z,79.61
2019-01-21T21:01:47.948Z,79.50
2019-01-21T21:04:21.575Z,79.53
2019-01-21T21:06:54.836Z,79.58
2019-01-21T21:09:28.846Z,79.55
2019-01-21T21:12:04.202Z,79.48
2019-01-21T21:14:37.776Z,79.53
2019-01-21T21:17:11.936Z,79.79
2019-01-21T21:19:55.018Z,80.01
2019-01-21T21:22:37.105Z,79.97
2019-01-21T21:25:12.668Z,79.90
2019-01-21T21:27:46.546Z,79.76
2019-01-21T21:30:31.208Z,79.55
2019-01-21T21:33:13.487Z,79.39
2019-01-21T21:35:47.441Z,79.29
2019-01-21T21:38:20.658Z,79.56
2019-01-21T21:40:55.720Z,79.66
2019-01-21T21:43:29.385Z,79.78
2019-01-21T21:46:04.000Z,79.91
2019-01-21T21:48:38.397Z,80.00
2019-01-21T21:51:11.678Z,80.04
2019-01-21T21:53:46.739Z,80.13
2019-01-21T21:56:19.904Z,80.21
2019-01-21T21:59:05.824Z,80.24
2019-01-21T22:01:48.395Z,80.38
2019-01-21T22:04:22.570Z,80.43
2019-01-21T22:07:05.030Z,80.42
2019-01-21T22:09:40.012Z,80.26
2019-01-21T22:12:13.255Z,80.27
2019-01-21T22:14:46.835Z,79.94
2019-01-21T22:17:21.512Z,79.59
2019-01-21T22:20:03.650Z,79.24
2019-01-21T22:22:37.007Z,79.00
2019-01-21T22:25:10.266Z,78.77
2019-01-21T22:27:44.274Z,78.60
2019-01-21T22:30:22.779Z,78.53
2019-01-21T22:32:55.816Z,78.31
2019-01-21T22:35:30.040Z,78.29
2019-01-21T22:38:03.531Z,78.31
2019-01-21T22:40:36.833Z,78.36
2019-01-21T22:43:10.329Z,78.57
2019-01-21T22:45:43.855Z,78.97
2019-01-21T22:48:17.057Z,79.08
2019-01-21T22:50:59.163Z,79.27
2019-01-21T22:53:42.566Z,79.32
2019-01-21T22:56:24.981Z,79.31
2019-01-21T22:58:58.490Z,79.16
2019-01-21T23:01:33.218Z,78.94
2019-01-21T23:04:06.758Z,79.04
2019-01-21T23:06:40.381Z,79.04
2019-01-21T23:09:14.003Z,79.08
2019-01-21T23:11:47.542Z,78.95
2019-01-21T23:14:21.481Z,78.96
2019-01-21T23:16:55.014Z,78.88
2019-01-21T23:19:28.657Z,78.75
2019-01-21T23:22:03.875Z,78.68
2019-01-21T23:24:37.007Z,78.50
2019-01-21T23:27:10.688Z,78.36
2019-01-21T23:29:44.201Z,78.24
2019-01-21T23:32:18.016Z,78.11
2019-01-21T23:35:01.460Z,77.87
2019-01-21T23:37:36.174Z,77.84
2019-01-21T23:40:10.448Z,77.58
2019-01-21T23:42:53.038Z,77.56
2019-01-21T23:45:26.762Z,77.60
2019-01-21T23:48:00.608Z,77.66
2019-01-21T23:50:43.869Z,77.71
2019-01-21T23:53:17.290Z,77.56
2019-01-21T23:55:50.412Z,77.24
2019-01-21T23:58:24.607Z,76.96
